Terminal Aerodrome Forecast
Issued by NWS

Current Version | Previous Version | Graphics & Text | Print | Product List | Glossary On
Versions: 1 2 3 4 5 6 7 8 9 10 11 12 13 14 15 16
000
FTUS41 KILN 172300
TAFLUK
TAF
KLUK 172333Z 1800/1824 17006KT P6SM BKN300
     FM180300 00000KT P6SM OVC200
     FM180800 00000KT P6SM BKN050
     FM181500 26006KT P6SM BKN050
     FM182100 29008KT P6SM BKN050=

USA.gov is the U.S. government's official web portal to all federal, state and local government web resources and services.